Stockton, California
Current Conditions -  °F | °C
As of 4:55 PM on Friday 19 Dec 2014 (Local Time) from KSCK Reporting Station
Overcast Overcast  
Wind Chill: 53°   Ceiling: 6000
Heat Index: 53°   Visibility: 10mi
Dew Point: 51°   Wind: 12mph
Humidity: 93%   Direction: 130°SE
Pressure: 30.13"   Gusts: NA
Location:  37.95°N, 121.29°W
Report Text: KSCK 200055Z 13010KT 10SM SCT046 OVC060 12/11 A3013 RMK AO2 RAB38E55 SLP201 P0000 T01170106
Loading
Personal Weather Stations






























Interactive Weather Map New forecast layout! Learn more

10-Day Weather Forecast

Advertisements
Track Severe Weather on mobile